sensor_id;sensor_type;location;lat;lon;timestamp;temperature;humidity
10873;DHT22;34586;53.616;10.032;2024-03-02T00:00:51;8.60;99.90
10873;DHT22;34586;53.616;10.032;2024-03-02T00:03:18;8.60;99.90
10873;DHT22;34586;53.616;10.032;2024-03-02T00:05:43;8.70;99.90
10873;DHT22;34586;53.616;10.032;2024-03-02T00:08:10;8.70;99.90
10873;DHT22;34586;53.616;10.032;2024-03-02T00:10:39;8.70;99.90
10873;DHT22;34586;53.616;10.032;2024-03-02T00:13:06;8.70;99.90
10873;DHT22;34586;53.616;10.032;2024-03-02T00:15:54;8.80;99.90
10873;DHT22;34586;53.616;10.032;2024-03-02T00:18:30;8.80;99.90
10873;DHT22;34586;53.616;10.032;2024-03-02T00:20:56;8.70;99.90
10873;DHT22;34586;53.616;10.032;2024-03-02T00:23:23;8.70;99.90
10873;DHT22;34586;53.616;10.032;2024-03-02T00:25:55;8.70;99.90
10873;DHT22;34586;53.616;10.032;2024-03-02T00:28:35;8.70;99.90
10873;DHT22;34586;53.616;10.032;2024-03-02T00:33:36;8.90;99.90
10873;DHT22;34586;53.616;10.032;2024-03-02T00:36:03;8.90;99.90
10873;DHT22;34586;53.616;10.032;2024-03-02T00:38:33;8.80;99.90
10873;DHT22;34586;53.616;10.032;2024-03-02T00:41:02;8.80;99.90
10873;DHT22;34586;53.616;10.032;2024-03-02T00:46:19;8.80;99.90
10873;DHT22;34586;53.616;10.032;2024-03-02T00:48:52;8.80;99.90
10873;DHT22;34586;53.616;10.032;2024-03-02T00:51:20;9.00;99.90
10873;DHT22;34586;53.616;10.032;2024-03-02T00:53:45;8.90;99.90
10873;DHT22;34586;53.616;10.032;2024-03-02T00:56:11;8.90;99.90
10873;DHT22;34586;53.616;10.032;2024-03-02T00:58:38;8.80;99.90
10873;DHT22;34586;53.616;10.032;2024-03-02T01:01:04;8.90;99.90
10873;DHT22;34586;53.616;10.032;2024-03-02T01:03:31;8.90;99.90
10873;DHT22;34586;53.616;10.032;2024-03-02T01:05:57;8.80;99.90
10873;DHT22;34586;53.616;10.032;2024-03-02T01:08:23;8.80;99.90
10873;DHT22;34586;53.616;10.032;2024-03-02T01:10:49;8.90;99.90
10873;DHT22;34586;53.616;10.032;2024-03-02T01:13:15;8.90;99.90
10873;DHT22;34586;53.616;10.032;2024-03-02T01:15:40;8.90;99.90
10873;DHT22;34586;53.616;10.032;2024-03-02T01:18:06;8.80;99.90
10873;DHT22;34586;53.616;10.032;2024-03-02T01:20:32;8.80;99.90
10873;DHT22;34586;53.616;10.032;2024-03-02T01:22:57;8.80;99.90
10873;DHT22;34586;53.616;10.032;2024-03-02T01:25:23;8.80;99.90
10873;DHT22;34586;53.616;10.032;2024-03-02T01:27:49;8.80;99.90
10873;DHT22;34586;53.616;10.032;2024-03-02T01:30:14;8.80;99.90
10873;DHT22;34586;53.616;10.032;2024-03-02T01:32:40;8.80;99.90
10873;DHT22;34586;53.616;10.032;2024-03-02T01:35:06;8.80;99.90
10873;DHT22;34586;53.616;10.032;2024-03-02T01:37:32;8.80;99.90
10873;DHT22;34586;53.616;10.032;2024-03-02T01:39:58;8.80;99.90
10873;DHT22;34586;53.616;10.032;2024-03-02T01:42:24;8.80;99.90
10873;DHT22;34586;53.616;10.032;2024-03-02T01:44:50;8.70;99.90
10873;DHT22;34586;53.616;10.032;2024-03-02T01:47:16;8.70;99.90
10873;DHT22;34586;53.616;10.032;2024-03-02T01:49:42;8.70;99.90
10873;DHT22;34586;53.616;10.032;2024-03-02T01:52:07;8.70;99.90
10873;DHT22;34586;53.616;10.032;2024-03-02T01:54:33;8.60;99.90
10873;DHT22;34586;53.616;10.032;2024-03-02T01:56:59;8.70;99.90
10873;DHT22;34586;53.616;10.032;2024-03-02T01:59:25;8.70;99.90
10873;DHT22;34586;53.616;10.032;2024-03-02T02:01:51;8.50;99.90
10873;DHT22;34586;53.616;10.032;2024-03-02T02:04:17;8.60;99.90
10873;DHT22;34586;53.616;10.032;2024-03-02T02:06:44;8.70;99.90
10873;DHT22;34586;53.616;10.032;2024-03-02T02:09:10;8.70;99.90
10873;DHT22;34586;53.616;10.032;2024-03-02T02:11:35;8.80;99.90
10873;DHT22;34586;53.616;10.032;2024-03-02T02:14:01;8.60;99.90
10873;DHT22;34586;53.616;10.032;2024-03-02T02:16:27;8.60;99.90
10873;DHT22;34586;53.616;10.032;2024-03-02T02:18:52;8.60;99.90
10873;DHT22;34586;53.616;10.032;2024-03-02T02:21:22;8.60;99.90
10873;DHT22;34586;53.616;10.032;2024-03-02T02:23:47;8.60;99.90
10873;DHT22;34586;53.616;10.032;2024-03-02T02:26:14;8.60;99.90
10873;DHT22;34586;53.616;10.032;2024-03-02T02:28:39;8.60;99.90
10873;DHT22;34586;53.616;10.032;2024-03-02T02:31:15;8.60;99.90
10873;DHT22;34586;53.616;10.032;2024-03-02T02:33:41;8.60;99.90
10873;DHT22;34586;53.616;10.032;2024-03-02T02:36:06;8.60;99.90
10873;DHT22;34586;53.616;10.032;2024-03-02T02:38:33;8.60;99.90
10873;DHT22;34586;53.616;10.032;2024-03-02T02:41:00;8.70;99.90
10873;DHT22;34586;53.616;10.032;2024-03-02T02:43:26;8.50;99.90
10873;DHT22;34586;53.616;10.032;2024-03-02T02:45:51;8.50;99.90
10873;DHT22;34586;53.616;10.032;2024-03-02T02:48:17;8.60;99.90
10873;DHT22;34586;53.616;10.032;2024-03-02T02:50:43;8.50;99.90
10873;DHT22;34586;53.616;10.032;2024-03-02T02:53:08;8.50;99.90
10873;DHT22;34586;53.616;10.032;2024-03-02T02:55:35;8.40;99.90
10873;DHT22;34586;53.616;10.032;2024-03-02T02:58:06;8.50;99.90
10873;DHT22;34586;53.616;10.032;2024-03-02T03:00:31;8.50;99.90
10873;DHT22;34586;53.616;10.032;2024-03-02T03:02:57;8.50;99.90
10873;DHT22;34586;53.616;10.032;2024-03-02T03:05:23;8.60;99.90
10873;DHT22;34586;53.616;10.032;2024-03-02T03:07:48;8.50;99.90
10873;DHT22;34586;53.616;10.032;2024-03-02T03:10:16;8.50;99.90
10873;DHT22;34586;53.616;10.032;2024-03-02T03:12:42;8.50;99.90
10873;DHT22;34586;53.616;10.032;2024-03-02T03:15:09;8.50;99.90
10873;DHT22;34586;53.616;10.032;2024-03-02T03:17:35;8.40;99.90
10873;DHT22;34586;53.616;10.032;2024-03-02T03:20:01;8.40;99.90
10873;DHT22;34586;53.616;10.032;2024-03-02T03:22:27;8.40;99.90
10873;DHT22;34586;53.616;10.032;2024-03-02T03:24:53;8.40;99.90
10873;DHT22;34586;53.616;10.032;2024-03-02T03:27:18;8.50;99.90
10873;DHT22;34586;53.616;10.032;2024-03-02T03:29:45;8.40;99.90
10873;DHT22;34586;53.616;10.032;2024-03-02T03:32:10;8.50;99.90
10873;DHT22;34586;53.616;10.032;2024-03-02T03:34:36;8.40;99.90
10873;DHT22;34586;53.616;10.032;2024-03-02T03:37:02;8.40;99.90
10873;DHT22;34586;53.616;10.032;2024-03-02T03:39:28;8.50;99.90
10873;DHT22;34586;53.616;10.032;2024-03-02T03:41:56;8.50;99.90
10873;DHT22;34586;53.616;10.032;2024-03-02T03:44:22;8.50;99.90
10873;DHT22;34586;53.616;10.032;2024-03-02T03:46:48;8.50;99.90
10873;DHT22;34586;53.616;10.032;2024-03-02T03:49:13;8.60;99.90
10873;DHT22;34586;53.616;10.032;2024-03-02T03:51:39;8.40;99.90
10873;DHT22;34586;53.616;10.032;2024-03-02T03:54:04;8.40;99.90
10873;DHT22;34586;53.616;10.032;2024-03-02T03:56:30;8.50;99.90
10873;DHT22;34586;53.616;10.032;2024-03-02T03:58:55;8.50;99.90
10873;DHT22;34586;53.616;10.032;2024-03-02T04:01:21;8.50;99.90
10873;DHT22;34586;53.616;10.032;2024-03-02T04:03:48;8.50;99.90
10873;DHT22;34586;53.616;10.032;2024-03-02T04:06:13;8.50;99.90
10873;DHT22;34586;53.616;10.032;2024-03-02T04:08:41;8.50;99.90
10873;DHT22;34586;53.616;10.032;2024-03-02T04:11:06;8.40;99.90
10873;DHT22;34586;53.616;10.032;2024-03-02T04:13:33;8.50;99.90
10873;DHT22;34586;53.616;10.032;2024-03-02T04:15:58;8.40;99.90
10873;DHT22;34586;53.616;10.032;2024-03-02T04:18:24;8.40;99.90
10873;DHT22;34586;53.616;10.032;2024-03-02T04:20:50;8.40;99.90
10873;DHT22;34586;53.616;10.032;2024-03-02T04:23:15;8.40;99.90
10873;DHT22;34586;53.616;10.032;2024-03-02T04:25:41;8.40;99.90
10873;DHT22;34586;53.616;10.032;2024-03-02T04:28:06;8.30;99.90
10873;DHT22;34586;53.616;10.032;2024-03-02T04:30:32;8.30;99.90
10873;DHT22;34586;53.616;10.032;2024-03-02T04:32:57;8.30;99.90
10873;DHT22;34586;53.616;10.032;2024-03-02T04:35:23;8.30;99.90
10873;DHT22;34586;53.616;10.032;2024-03-02T04:37:49;8.30;99.90
10873;DHT22;34586;53.616;10.032;2024-03-02T04:40:14;8.20;99.90
10873;DHT22;34586;53.616;10.032;2024-03-02T04:42:40;8.30;99.90
10873;DHT22;34586;53.616;10.032;2024-03-02T04:45:06;8.30;99.90
10873;DHT22;34586;53.616;10.032;2024-03-02T04:47:32;8.20;99.90
10873;DHT22;34586;53.616;10.032;2024-03-02T04:49:58;8.20;99.90
10873;DHT22;34586;53.616;10.032;2024-03-02T04:52:23;8.20;99.90
10873;DHT22;34586;53.616;10.032;2024-03-02T04:54:49;8.20;99.90
10873;DHT22;34586;53.616;10.032;2024-03-02T04:57:33;8.20;99.90
10873;DHT22;34586;53.616;10.032;2024-03-02T04:59:59;8.20;99.90
10873;DHT22;34586;53.616;10.032;2024-03-02T05:02:25;8.20;99.90
10873;DHT22;34586;53.616;10.032;2024-03-02T05:04:51;8.20;99.90
10873;DHT22;34586;53.616;10.032;2024-03-02T05:07:16;8.20;99.90
10873;DHT22;34586;53.616;10.032;2024-03-02T05:09:42;8.20;99.90
10873;DHT22;34586;53.616;10.032;2024-03-02T05:12:08;8.20;99.90
10873;DHT22;34586;53.616;10.032;2024-03-02T05:14:52;8.20;99.90
10873;DHT22;34586;53.616;10.032;2024-03-02T05:17:18;8.20;99.90
10873;DHT22;34586;53.616;10.032;2024-03-02T05:19:43;8.20;99.90
10873;DHT22;34586;53.616;10.032;2024-03-02T05:22:09;8.20;99.90
10873;DHT22;34586;53.616;10.032;2024-03-02T05:24:34;8.20;99.90
10873;DHT22;34586;53.616;10.032;2024-03-02T05:27:00;8.20;99.90
10873;DHT22;34586;53.616;10.032;2024-03-02T05:29:25;8.20;99.90
10873;DHT22;34586;53.616;10.032;2024-03-02T05:31:51;8.20;99.90
10873;DHT22;34586;53.616;10.032;2024-03-02T05:34:17;8.30;99.90
10873;DHT22;34586;53.616;10.032;2024-03-02T05:36:43;8.20;99.90
10873;DHT22;34586;53.616;10.032;2024-03-02T05:39:09;8.20;99.90
10873;DHT22;34586;53.616;10.032;2024-03-02T05:41:36;8.20;99.90
10873;DHT22;34586;53.616;10.032;2024-03-02T05:44:01;8.20;99.90
10873;DHT22;34586;53.616;10.032;2024-03-02T05:46:27;8.20;99.90
10873;DHT22;34586;53.616;10.032;2024-03-02T05:48:53;8.20;99.90
10873;DHT22;34586;53.616;10.032;2024-03-02T05:51:18;8.10;99.90
10873;DHT22;34586;53.616;10.032;2024-03-02T05:53:44;8.10;99.90
10873;DHT22;34586;53.616;10.032;2024-03-02T05:56:09;8.20;99.90
10873;DHT22;34586;53.616;10.032;2024-03-02T05:58:35;8.10;99.90
10873;DHT22;34586;53.616;10.032;2024-03-02T06:01:19;8.20;99.90
10873;DHT22;34586;53.616;10.032;2024-03-02T06:03:45;8.20;99.90
10873;DHT22;34586;53.616;10.032;2024-03-02T06:06:10;8.20;99.90
10873;DHT22;34586;53.616;10.032;2024-03-02T06:08:36;8.10;99.90
10873;DHT22;34586;53.616;10.032;2024-03-02T06:11:02;8.10;99.90
10873;DHT22;34586;53.616;10.032;2024-03-02T06:13:27;8.10;99.90
10873;DHT22;34586;53.616;10.032;2024-03-02T06:15:53;8.10;99.90
10873;DHT22;34586;53.616;10.032;2024-03-02T06:18:18;8.10;99.90
10873;DHT22;34586;53.616;10.032;2024-03-02T06:20:44;8.10;99.90
10873;DHT22;34586;53.616;10.032;2024-03-02T06:23:10;8.10;99.90
10873;DHT22;34586;53.616;10.032;2024-03-02T06:25:35;8.10;99.90
10873;DHT22;34586;53.616;10.032;2024-03-02T06:28:01;8.10;99.90
10873;DHT22;34586;53.616;10.032;2024-03-02T06:30:26;8.10;99.90
10873;DHT22;34586;53.616;10.032;2024-03-02T06:32:52;8.10;99.90
10873;DHT22;34586;53.616;10.032;2024-03-02T06:35:18;8.10;99.90
10873;DHT22;34586;53.616;10.032;2024-03-02T06:37:43;8.10;99.90
10873;DHT22;34586;53.616;10.032;2024-03-02T06:40:09;8.20;99.90
10873;DHT22;34586;53.616;10.032;2024-03-02T06:42:35;8.00;99.90
10873;DHT22;34586;53.616;10.032;2024-03-02T06:45:01;8.00;99.90
10873;DHT22;34586;53.616;10.032;2024-03-02T06:47:27;8.00;99.90
10873;DHT22;34586;53.616;10.032;2024-03-02T06:49:53;8.00;99.90
10873;DHT22;34586;53.616;10.032;2024-03-02T06:52:19;8.00;99.90
10873;DHT22;34586;53.616;10.032;2024-03-02T06:54:45;7.90;99.90
10873;DHT22;34586;53.616;10.032;2024-03-02T06:57:12;7.90;99.90
10873;DHT22;34586;53.616;10.032;2024-03-02T06:59:37;8.00;99.90
10873;DHT22;34586;53.616;10.032;2024-03-02T07:02:03;7.90;99.90
10873;DHT22;34586;53.616;10.032;2024-03-02T07:04:28;8.10;99.90
10873;DHT22;34586;53.616;10.032;2024-03-02T07:06:54;8.20;99.90
10873;DHT22;34586;53.616;10.032;2024-03-02T07:09:20;8.10;99.90
10873;DHT22;34586;53.616;10.032;2024-03-02T07:11:48;8.20;99.90
10873;DHT22;34586;53.616;10.032;2024-03-02T07:14:14;8.20;99.90
10873;DHT22;34586;53.616;10.032;2024-03-02T07:16:40;8.20;99.90
10873;DHT22;34586;53.616;10.032;2024-03-02T07:19:06;8.40;99.90
10873;DHT22;34586;53.616;10.032;2024-03-02T07:21:32;8.40;99.90
10873;DHT22;34586;53.616;10.032;2024-03-02T07:23:58;8.40;99.90
10873;DHT22;34586;53.616;10.032;2024-03-02T07:26:24;8.50;99.90
10873;DHT22;34586;53.616;10.032;2024-03-02T07:28:50;8.60;99.90
10873;DHT22;34586;53.616;10.032;2024-03-02T07:31:16;8.60;99.90
10873;DHT22;34586;53.616;10.032;2024-03-02T07:33:45;8.70;99.90
10873;DHT22;34586;53.616;10.032;2024-03-02T07:36:14;8.70;99.90
10873;DHT22;34586;53.616;10.032;2024-03-02T07:38:40;8.80;99.90
10873;DHT22;34586;53.616;10.032;2024-03-02T07:41:06;8.90;99.90
10873;DHT22;34586;53.616;10.032;2024-03-02T07:43:32;9.00;99.90
10873;DHT22;34586;53.616;10.032;2024-03-02T07:45:59;8.90;99.90
10873;DHT22;34586;53.616;10.032;2024-03-02T07:48:25;8.90;99.90
10873;DHT22;34586;53.616;10.032;2024-03-02T07:50:50;9.00;99.90
10873;DHT22;34586;53.616;10.032;2024-03-02T07:53:16;9.00;99.90
10873;DHT22;34586;53.616;10.032;2024-03-02T07:55:42;9.00;99.90
10873;DHT22;34586;53.616;10.032;2024-03-02T07:58:08;9.10;99.90
10873;DHT22;34586;53.616;10.032;2024-03-02T08:00:34;9.10;99.90
10873;DHT22;34586;53.616;10.032;2024-03-02T08:03:00;9.10;99.90
10873;DHT22;34586;53.616;10.032;2024-03-02T08:05:26;9.20;99.90
10873;DHT22;34586;53.616;10.032;2024-03-02T08:07:53;9.20;99.90
10873;DHT22;34586;53.616;10.032;2024-03-02T08:10:19;9.30;99.90
10873;DHT22;34586;53.616;10.032;2024-03-02T08:12:45;9.30;99.90
10873;DHT22;34586;53.616;10.032;2024-03-02T08:15:10;9.30;99.90
10873;DHT22;34586;53.616;10.032;2024-03-02T08:17:38;9.20;99.90
10873;DHT22;34586;53.616;10.032;2024-03-02T08:20:10;9.30;99.90
10873;DHT22;34586;53.616;10.032;2024-03-02T08:22:36;9.30;99.90
10873;DHT22;34586;53.616;10.032;2024-03-02T08:25:02;9.30;99.90
10873;DHT22;34586;53.616;10.032;2024-03-02T08:27:27;9.30;99.90
10873;DHT22;34586;53.616;10.032;2024-03-02T08:29:53;9.30;99.90
10873;DHT22;34586;53.616;10.032;2024-03-02T08:32:19;9.40;99.90
10873;DHT22;34586;53.616;10.032;2024-03-02T08:34:45;9.40;99.90
10873;DHT22;34586;53.616;10.032;2024-03-02T08:37:10;9.50;99.90
10873;DHT22;34586;53.616;10.032;2024-03-02T08:39:36;9.50;99.90
10873;DHT22;34586;53.616;10.032;2024-03-02T08:42:01;9.50;99.90
10873;DHT22;34586;53.616;10.032;2024-03-02T08:44:27;9.50;99.90
10873;DHT22;34586;53.616;10.032;2024-03-02T08:46:52;9.60;99.90
10873;DHT22;34586;53.616;10.032;2024-03-02T08:49:18;9.60;99.90
10873;DHT22;34586;53.616;10.032;2024-03-02T08:51:44;9.60;99.90
10873;DHT22;34586;53.616;10.032;2024-03-02T08:54:09;9.70;99.90
10873;DHT22;34586;53.616;10.032;2024-03-02T08:56:35;9.90;99.90
10873;DHT22;34586;53.616;10.032;2024-03-02T08:59:01;9.80;99.90
10873;DHT22;34586;53.616;10.032;2024-03-02T09:01:27;9.90;99.90
10873;DHT22;34586;53.616;10.032;2024-03-02T09:03:52;9.90;99.90
10873;DHT22;34586;53.616;10.032;2024-03-02T09:06:18;10.00;99.90
10873;DHT22;34586;53.616;10.032;2024-03-02T09:08:45;10.10;99.90
10873;DHT22;34586;53.616;10.032;2024-03-02T09:11:11;10.30;99.90
10873;DHT22;34586;53.616;10.032;2024-03-02T09:13:38;10.30;99.90
10873;DHT22;34586;53.616;10.032;2024-03-02T09:16:04;10.50;99.90
10873;DHT22;34586;53.616;10.032;2024-03-02T09:18:30;10.50;99.90
10873;DHT22;34586;53.616;10.032;2024-03-02T09:20:56;10.60;99.90
10873;DHT22;34586;53.616;10.032;2024-03-02T09:23:21;10.60;99.90
10873;DHT22;34586;53.616;10.032;2024-03-02T09:25:47;10.70;99.90
10873;DHT22;34586;53.616;10.032;2024-03-02T09:28:13;10.70;99.90
10873;DHT22;34586;53.616;10.032;2024-03-02T09:30:39;10.80;99.90
10873;DHT22;34586;53.616;10.032;2024-03-02T09:33:04;10.70;99.90
10873;DHT22;34586;53.616;10.032;2024-03-02T09:35:30;10.70;99.90
10873;DHT22;34586;53.616;10.032;2024-03-02T09:37:56;10.60;99.90
10873;DHT22;34586;53.616;10.032;2024-03-02T09:40:22;10.70;99.90
10873;DHT22;34586;53.616;10.032;2024-03-02T09:42:48;10.70;99.90
10873;DHT22;34586;53.616;10.032;2024-03-02T09:45:24;10.70;99.90
10873;DHT22;34586;53.616;10.032;2024-03-02T09:47:49;10.80;99.90
10873;DHT22;34586;53.616;10.032;2024-03-02T09:50:15;10.80;99.90
10873;DHT22;34586;53.616;10.032;2024-03-02T09:52:44;10.90;99.90
10873;DHT22;34586;53.616;10.032;2024-03-02T09:55:13;10.90;99.90
10873;DHT22;34586;53.616;10.032;2024-03-02T09:57:41;10.90;99.90
10873;DHT22;34586;53.616;10.032;2024-03-02T10:00:08;11.00;99.90
10873;DHT22;34586;53.616;10.032;2024-03-02T10:02:34;11.00;99.90
10873;DHT22;34586;53.616;10.032;2024-03-02T10:04:59;11.00;99.90
10873;DHT22;34586;53.616;10.032;2024-03-02T10:07:25;11.00;99.90
10873;DHT22;34586;53.616;10.032;2024-03-02T10:09:50;11.10;99.90
10873;DHT22;34586;53.616;10.032;2024-03-02T10:12:18;11.10;99.90
10873;DHT22;34586;53.616;10.032;2024-03-02T10:14:44;11.20;99.90
10873;DHT22;34586;53.616;10.032;2024-03-02T10:17:12;11.20;99.90
10873;DHT22;34586;53.616;10.032;2024-03-02T10:19:38;11.20;99.90
10873;DHT22;34586;53.616;10.032;2024-03-02T10:22:06;11.20;99.90
10873;DHT22;34586;53.616;10.032;2024-03-02T10:24:40;11.30;99.90
10873;DHT22;34586;53.616;10.032;2024-03-02T10:27:10;11.40;99.90
10873;DHT22;34586;53.616;10.032;2024-03-02T10:29:40;11.50;99.90
10873;DHT22;34586;53.616;10.032;2024-03-02T10:32:09;11.60;99.90
10873;DHT22;34586;53.616;10.032;2024-03-02T10:34:35;11.80;99.90
10873;DHT22;34586;53.616;10.032;2024-03-02T10:37:01;11.90;99.90
10873;DHT22;34586;53.616;10.032;2024-03-02T10:39:28;12.00;99.90
10873;DHT22;34586;53.616;10.032;2024-03-02T10:41:55;12.10;99.90
10873;DHT22;34586;53.616;10.032;2024-03-02T10:44:22;12.20;99.90
10873;DHT22;34586;53.616;10.032;2024-03-02T10:46:49;12.30;99.90
10873;DHT22;34586;53.616;10.032;2024-03-02T10:49:16;12.50;99.90
10873;DHT22;34586;53.616;10.032;2024-03-02T10:51:43;12.50;99.90
10873;DHT22;34586;53.616;10.032;2024-03-02T10:54:08;12.60;99.90
10873;DHT22;34586;53.616;10.032;2024-03-02T11:01:37;12.70;99.90
10873;DHT22;34586;53.616;10.032;2024-03-02T11:04:04;12.80;99.90
10873;DHT22;34586;53.616;10.032;2024-03-02T11:06:35;12.90;99.90
10873;DHT22;34586;53.616;10.032;2024-03-02T11:09:06;13.10;99.90
10873;DHT22;34586;53.616;10.032;2024-03-02T11:11:37;13.10;99.90
10873;DHT22;34586;53.616;10.032;2024-03-02T11:14:04;13.20;99.90
10873;DHT22;34586;53.616;10.032;2024-03-02T11:16:37;13.20;99.90
10873;DHT22;34586;53.616;10.032;2024-03-02T11:19:12;13.40;99.90
10873;DHT22;34586;53.616;10.032;2024-03-02T11:21:38;13.40;99.90
10873;DHT22;34586;53.616;10.032;2024-03-02T11:26:53;13.50;99.90
10873;DHT22;34586;53.616;10.032;2024-03-02T11:32:05;13.60;1.00
10873;DHT22;34586;53.616;10.032;2024-03-02T11:34:32;13.50;1.00
10873;DHT22;34586;53.616;10.032;2024-03-02T11:36:59;13.50;1.00
10873;DHT22;34586;53.616;10.032;2024-03-02T11:39:27;13.80;1.00
10873;DHT22;34586;53.616;10.032;2024-03-02T11:41:53;13.70;1.00
10873;DHT22;34586;53.616;10.032;2024-03-02T11:44:18;13.70;1.00
10873;DHT22;34586;53.616;10.032;2024-03-02T11:46:53;13.70;1.00
10873;DHT22;34586;53.616;10.032;2024-03-02T11:49:43;13.80;1.00
10873;DHT22;34586;53.616;10.032;2024-03-02T11:52:11;13.90;1.00
10873;DHT22;34586;53.616;10.032;2024-03-02T11:54:38;13.90;1.00
10873;DHT22;34586;53.616;10.032;2024-03-02T11:57:12;14.00;1.00
10873;DHT22;34586;53.616;10.032;2024-03-02T11:59:39;14.00;1.00
10873;DHT22;34586;53.616;10.032;2024-03-02T12:02:06;13.90;1.00
10873;DHT22;34586;53.616;10.032;2024-03-02T12:04:31;14.00;1.00
10873;DHT22;34586;53.616;10.032;2024-03-02T12:06:59;13.90;1.00
10873;DHT22;34586;53.616;10.032;2024-03-02T12:09:29;14.00;1.00
10873;DHT22;34586;53.616;10.032;2024-03-02T12:12:05;14.00;1.00
10873;DHT22;34586;53.616;10.032;2024-03-02T12:14:32;13.90;1.00
10873;DHT22;34586;53.616;10.032;2024-03-02T12:16:57;13.90;1.00
10873;DHT22;34586;53.616;10.032;2024-03-02T12:19:24;13.90;1.00
10873;DHT22;34586;53.616;10.032;2024-03-02T12:21:51;13.90;1.00
10873;DHT22;34586;53.616;10.032;2024-03-02T12:24:16;13.90;1.00
10873;DHT22;34586;53.616;10.032;2024-03-02T12:26:42;14.00;1.00
10873;DHT22;34586;53.616;10.032;2024-03-02T12:29:08;14.10;1.00
10873;DHT22;34586;53.616;10.032;2024-03-02T12:31:34;14.10;1.00
10873;DHT22;34586;53.616;10.032;2024-03-02T12:34:01;14.20;1.00
10873;DHT22;34586;53.616;10.032;2024-03-02T12:36:27;14.20;1.00
10873;DHT22;34586;53.616;10.032;2024-03-02T12:38:53;14.30;1.00
10873;DHT22;34586;53.616;10.032;2024-03-02T12:41:20;14.30;1.00
10873;DHT22;34586;53.616;10.032;2024-03-02T12:43:46;14.40;1.00
10873;DHT22;34586;53.616;10.032;2024-03-02T12:46:11;14.40;1.00
10873;DHT22;34586;53.616;10.032;2024-03-02T12:48:37;14.40;1.00
10873;DHT22;34586;53.616;10.032;2024-03-02T12:51:06;14.40;1.00
10873;DHT22;34586;53.616;10.032;2024-03-02T12:53:32;14.40;1.00
10873;DHT22;34586;53.616;10.032;2024-03-02T12:55:58;14.40;1.00
10873;DHT22;34586;53.616;10.032;2024-03-02T12:58:24;14.40;1.00
10873;DHT22;34586;53.616;10.032;2024-03-02T13:00:49;14.30;1.00
10873;DHT22;34586;53.616;10.032;2024-03-02T13:03:18;14.30;1.00
10873;DHT22;34586;53.616;10.032;2024-03-02T13:05:48;14.30;1.00
10873;DHT22;34586;53.616;10.032;2024-03-02T13:08:15;14.30;1.00
10873;DHT22;34586;53.616;10.032;2024-03-02T13:10:40;14.20;1.00
10873;DHT22;34586;53.616;10.032;2024-03-02T13:13:06;14.10;1.00
10873;DHT22;34586;53.616;10.032;2024-03-02T13:15:33;14.10;1.00
10873;DHT22;34586;53.616;10.032;2024-03-02T13:17:59;14.30;1.00
10873;DHT22;34586;53.616;10.032;2024-03-02T13:20:32;14.30;1.00
10873;DHT22;34586;53.616;10.032;2024-03-02T13:22:58;14.30;1.00
10873;DHT22;34586;53.616;10.032;2024-03-02T13:25:23;14.40;1.00
10873;DHT22;34586;53.616;10.032;2024-03-02T13:27:49;14.40;1.00
10873;DHT22;34586;53.616;10.032;2024-03-02T13:30:15;14.40;1.00
10873;DHT22;34586;53.616;10.032;2024-03-02T13:32:40;14.30;1.00
10873;DHT22;34586;53.616;10.032;2024-03-02T13:35:06;14.30;1.00
10873;DHT22;34586;53.616;10.032;2024-03-02T13:37:32;14.30;1.00
10873;DHT22;34586;53.616;10.032;2024-03-02T13:39:57;14.40;1.00
10873;DHT22;34586;53.616;10.032;2024-03-02T13:42:23;14.20;1.00
10873;DHT22;34586;53.616;10.032;2024-03-02T13:44:49;14.20;1.00
10873;DHT22;34586;53.616;10.032;2024-03-02T13:47:16;14.20;1.00
10873;DHT22;34586;53.616;10.032;2024-03-02T13:49:42;14.10;1.00
10873;DHT22;34586;53.616;10.032;2024-03-02T13:52:12;14.20;1.00
10873;DHT22;34586;53.616;10.032;2024-03-02T13:54:41;14.50;1.00
10873;DHT22;34586;53.616;10.032;2024-03-02T13:57:08;14.60;1.00
10873;DHT22;34586;53.616;10.032;2024-03-02T13:59:34;14.90;1.00
10873;DHT22;34586;53.616;10.032;2024-03-02T14:02:01;15.10;1.00
10873;DHT22;34586;53.616;10.032;2024-03-02T14:04:27;15.20;1.00
10873;DHT22;34586;53.616;10.032;2024-03-02T14:06:53;15.40;1.00
10873;DHT22;34586;53.616;10.032;2024-03-02T14:09:18;15.50;99.90
10873;DHT22;34586;53.616;10.032;2024-03-02T14:11:46;15.50;99.90
10873;DHT22;34586;53.616;10.032;2024-03-02T14:14:11;15.60;99.90
10873;DHT22;34586;53.616;10.032;2024-03-02T14:16:37;15.80;1.00
10873;DHT22;34586;53.616;10.032;2024-03-02T14:19:03;15.90;1.00
10873;DHT22;34586;53.616;10.032;2024-03-02T14:21:30;16.10;99.90
10873;DHT22;34586;53.616;10.032;2024-03-02T14:23:55;16.30;99.90
10873;DHT22;34586;53.616;10.032;2024-03-02T14:26:21;16.30;99.90
10873;DHT22;34586;53.616;10.032;2024-03-02T14:28:47;16.10;99.90
10873;DHT22;34586;53.616;10.032;2024-03-02T14:31:12;15.90;99.90
10873;DHT22;34586;53.616;10.032;2024-03-02T14:33:38;15.60;99.90
10873;DHT22;34586;53.616;10.032;2024-03-02T14:36:04;15.30;99.90
10873;DHT22;34586;53.616;10.032;2024-03-02T14:38:30;15.00;99.90
10873;DHT22;34586;53.616;10.032;2024-03-02T14:40:56;14.80;1.00
10873;DHT22;34586;53.616;10.032;2024-03-02T14:43:22;14.70;1.00
10873;DHT22;34586;53.616;10.032;2024-03-02T14:45:48;14.60;1.00
10873;DHT22;34586;53.616;10.032;2024-03-02T14:48:14;14.60;1.00
10873;DHT22;34586;53.616;10.032;2024-03-02T14:50:39;14.50;1.00
10873;DHT22;34586;53.616;10.032;2024-03-02T14:53:05;14.50;1.00
10873;DHT22;34586;53.616;10.032;2024-03-02T14:55:33;14.40;1.00
10873;DHT22;34586;53.616;10.032;2024-03-02T14:57:59;14.30;99.90
10873;DHT22;34586;53.616;10.032;2024-03-02T15:00:25;14.20;99.90
10873;DHT22;34586;53.616;10.032;2024-03-02T15:02:51;14.10;99.90
10873;DHT22;34586;53.616;10.032;2024-03-02T15:05:17;14.00;1.00
10873;DHT22;34586;53.616;10.032;2024-03-02T15:07:43;14.00;1.00
10873;DHT22;34586;53.616;10.032;2024-03-02T15:10:09;13.90;1.00
10873;DHT22;34586;53.616;10.032;2024-03-02T15:12:34;13.70;1.00
10873;DHT22;34586;53.616;10.032;2024-03-02T15:15:00;13.70;1.00
10873;DHT22;34586;53.616;10.032;2024-03-02T15:17:26;13.70;1.00
10873;DHT22;34586;53.616;10.032;2024-03-02T15:19:52;13.50;1.00
10873;DHT22;34586;53.616;10.032;2024-03-02T15:22:17;13.50;1.00
10873;DHT22;34586;53.616;10.032;2024-03-02T15:24:43;13.40;1.00
10873;DHT22;34586;53.616;10.032;2024-03-02T15:27:09;13.40;1.00
10873;DHT22;34586;53.616;10.032;2024-03-02T15:29:35;13.30;1.00
10873;DHT22;34586;53.616;10.032;2024-03-02T15:32:01;13.30;1.00
10873;DHT22;34586;53.616;10.032;2024-03-02T15:34:30;13.30;1.00
10873;DHT22;34586;53.616;10.032;2024-03-02T15:36:55;13.20;1.00
10873;DHT22;34586;53.616;10.032;2024-03-02T15:39:21;13.10;1.00